Chesapeake, VA

11:34 AM EST on November 27, 2014 (GMT -0500)
South Greenbrier | Change Station
CLOSE
Current Station
Personal Weather Station
Location: Chesapeake, VA
Elevation: 33 ft
Nearby Weather Stations

Elev 33 ft 36.74 °N, 76.22 °W | Updated 48 seconds ago

Rain
Rain
42.2 °F
Feels Like 42 °F
N
0.0
Wind Variable Wind from NNW
Gusts 1.0 mph

Today
High -- | Low -- °F
--% Chance of Precip.
Yesterday
High -- | Low -- °F
Precip. -- in
6:55 AM 4:49 PM
Waxing Crescent, 31% visible
Pressure 30.04 in
Visibility 10.0 miles
Clouds Few 600 ft
Mostly Cloudy 3800 ft
Overcast 4400 ft
Windchill 42 °F
Dew Point 41 °F
Humidity 95%
Rainfall 0.05 in
Snow Depth Not available.
UV 1 out of 12
Pollen .10 out of 12
Air Quality Not available.
Flu Activity Not available.
SPECI KNFE 271625Z AUTO 00000KT 10SM -RA FEW006 BKN038 OVC044 08/04 A3004 RMK AO2 T00780044 PNO $

More Conditions Fewer Conditions

Pressure 30.04 in
Visibility 10.0 miles
Clouds Few 600 ft
Mostly Cloudy 3800 ft
Overcast 4400 ft
Windchill 42 °F
Dew Point 41 °F
Humidity 95%
Rainfall 0.05 in
Snow Depth Not available.
UV 1 out of 12
Pollen .10 out of 12
Air Quality Not available.
Flu Activity Not available.
SPECI KNFE 271625Z AUTO 00000KT 10SM -RA FEW006 BKN038 OVC044 08/04 A3004 RMK AO2 T00780044 PNO $

More Conditions Fewer Conditions

10-Day Weather Forecast

Almanac

Astronomy

Nov. 27, 2014 Rise Set
Actual Time
Civil Twilight
Nautical Twilight
Astronomical Twilight
Moon
Length of Visible Light
Length of Day
Tomorrow will be .
, % of the Moon is Illuminated

Today's Extremes

State Highs State Lows

Community

WunderPhotos

Upload Photos

1,774,035 photos uploaded!

WunderBlogs® & News

Nearby

Air Quality

  Air Quality AQ Index Pollutant
Not available.

Snow Depth

Station Depth Elevation

Earthquake Activity

City Distance Mag. Time & Date
Minimum magnitude displayed is 2.5.

Coastal Water Temperatures

Place Temperature

Nearby Weather Stations